createdAt,value
2023-03-18T06:19:23.123Z,5.92
2023-03-18T06:24:29.405Z,6.11
2023-03-18T06:29:39.026Z,6.26
2023-03-18T06:34:52.908Z,5.43
2023-03-18T06:39:59.913Z,5.14
2023-03-18T06:45:07.945Z,4.60
2023-03-18T06:50:25.669Z,5.65
2023-03-18T06:55:31.881Z,5.68
2023-03-18T07:00:38.966Z,6.19
2023-03-18T07:05:47.349Z,5.79
2023-03-18T07:10:57.425Z,6.77
2023-03-18T07:16:06.483Z,5.73
2023-03-18T07:21:11.632Z,6.13
2023-03-18T07:26:18.615Z,6.08
2023-03-18T07:31:25.653Z,7.09
2023-03-18T07:36:30.196Z,6.84
2023-03-18T07:41:37.808Z,7.94
2023-03-18T07:46:45.424Z,7.86
2023-03-18T07:51:49.872Z,8.87
2023-03-18T07:56:54.650Z,8.19
2023-03-18T08:02:00.372Z,8.47
2023-03-18T08:07:04.785Z,9.01
2023-03-18T08:12:09.953Z,8.56
2023-03-18T08:17:15.937Z,8.71
2023-03-18T08:22:24.213Z,9.02
2023-03-18T08:27:28.342Z,8.75
2023-03-18T08:32:34.197Z,9.56
2023-03-18T08:37:38.534Z,9.36
2023-03-18T08:42:42.531Z,8.91
2023-03-18T08:47:48.546Z,9.99
2023-03-18T08:52:52.567Z,9.34
2023-03-18T08:57:56.733Z,10.09
2023-03-18T09:03:02.875Z,9.94
2023-03-18T09:08:07.895Z,10.32
2023-03-18T09:13:12.675Z,9.47
2023-03-18T09:18:19.526Z,9.33
2023-03-18T09:23:23.842Z,9.53
2023-03-18T09:28:28.408Z,9.40
2023-03-18T09:33:45.666Z,9.44
2023-03-18T09:38:50.067Z,9.93
2023-03-18T09:44:03.488Z,10.70
2023-03-18T09:49:31.644Z,11.14
2023-03-18T09:54:41.388Z,11.05
2023-03-18T09:59:48.838Z,10.71
2023-03-18T10:04:58.166Z,11.43
2023-03-18T10:10:08.625Z,11.11
2023-03-18T10:15:19.278Z,10.42
2023-03-18T10:20:35.197Z,11.30
2023-03-18T10:25:44.996Z,10.79
2023-03-18T10:30:57.782Z,12.20
2023-03-18T10:36:10.418Z,10.59
2023-03-18T10:41:18.780Z,11.71
2023-03-18T10:46:23.694Z,11.64
2023-03-18T10:51:35.794Z,12.31
2023-03-18T10:56:40.372Z,12.48
2023-03-18T11:01:50.029Z,12.11
2023-03-18T11:06:59.613Z,12.27
2023-03-18T11:12:05.877Z,12.75
2023-03-18T11:17:22.126Z,12.40
2023-03-18T11:22:29.187Z,12.92
2023-03-18T11:27:40.648Z,13.03
2023-03-18T11:32:56.741Z,12.02
2023-03-18T11:38:05.642Z,12.55
2023-03-18T11:43:20.119Z,13.29
2023-03-18T11:48:35.788Z,12.12
2023-03-18T11:53:52.749Z,12.69
2023-03-18T11:59:14.056Z,14.55
2023-03-18T12:04:38.932Z,15.13
2023-03-18T12:09:56.974Z,15.54
2023-03-18T12:15:06.844Z,15.97
2023-03-18T12:20:48.252Z,17.71
2023-03-18T12:26:02.211Z,19.06
2023-03-18T12:31:24.022Z,16.74
2023-03-18T12:36:39.790Z,17.31
2023-03-18T12:42:02.568Z,18.71
2023-03-18T12:47:10.581Z,19.02
2023-03-18T12:52:27.538Z,16.89
2023-03-18T12:57:42.212Z,16.84
2023-03-18T13:02:54.271Z,17.98
2023-03-18T13:08:27.805Z,18.52
2023-03-18T13:13:38.445Z,18.22
2023-03-18T13:18:46.401Z,18.15
2023-03-18T13:24:22.042Z,18.21
2023-03-18T13:29:36.460Z,18.01
2023-03-18T13:35:02.581Z,17.30
2023-03-18T13:40:16.031Z,17.19
2023-03-18T13:45:28.057Z,17.30
2023-03-18T13:50:35.702Z,15.91
2023-03-18T13:55:47.702Z,16.18
2023-03-18T14:01:28.785Z,16.88
2023-03-18T14:06:53.923Z,17.35
2023-03-18T14:12:05.051Z,16.86
2023-03-18T14:17:19.518Z,17.06
2023-03-18T14:22:27.925Z,16.34
2023-03-18T14:27:32.078Z,16.76
2023-03-18T14:32:41.760Z,16.70
2023-03-18T14:38:02.694Z,16.45
2023-03-18T14:43:11.762Z,17.00
2023-03-18T14:48:21.769Z,17.96
2023-03-18T14:53:32.237Z,18.45
2023-03-18T14:58:36.504Z,17.99
2023-03-18T15:03:44.947Z,16.71
2023-03-18T15:08:52.634Z,16.89
2023-03-18T15:14:00.137Z,17.21
2023-03-18T15:19:06.940Z,17.03
2023-03-18T15:24:17.059Z,16.03
2023-03-18T15:29:31.529Z,16.88
2023-03-18T15:34:39.604Z,16.97
2023-03-18T15:39:44.141Z,16.49
2023-03-18T15:44:56.149Z,15.74
2023-03-18T15:50:09.643Z,15.33
2023-03-18T15:55:29.377Z,14.29
2023-03-18T16:00:34.809Z,14.34
2023-03-18T16:05:40.380Z,14.87
2023-03-18T16:10:46.878Z,14.71
2023-03-18T16:15:51.408Z,14.40
2023-03-18T16:20:57.440Z,13.18
2023-03-18T16:26:02.237Z,12.33
2023-03-18T16:31:07.116Z,12.15
2023-03-18T16:36:25.214Z,11.63
2023-03-18T16:41:29.699Z,10.83
2023-03-18T16:46:34.120Z,10.48
2023-03-18T16:51:41.356Z,9.91
2023-03-18T16:56:45.484Z,9.46
2023-03-18T17:01:49.610Z,9.41
2023-03-18T17:06:57.998Z,9.46
2023-03-18T17:12:07.618Z,9.31
2023-03-18T17:17:19.267Z,9.29
2023-03-18T17:22:30.602Z,8.82
2023-03-18T17:27:40.914Z,8.59
2023-03-18T17:32:47.779Z,9.19
2023-03-18T17:37:54.817Z,9.59
2023-03-18T17:42:59.129Z,9.70
2023-03-18T17:48:15.946Z,10.27
2023-03-18T17:53:35.405Z,9.82
2023-03-18T17:58:44.992Z,9.75
2023-03-18T18:03:49.736Z,9.78
2023-03-18T18:08:59.143Z,10.04
2023-03-18T18:14:13.254Z,9.41
2023-03-18T18:19:17.654Z,9.82
2023-03-18T18:24:24.864Z,9.04
2023-03-18T18:29:31.427Z,9.64
2023-03-18T18:34:36.354Z,9.75
2023-03-18T18:39:42.690Z,9.68
2023-03-18T18:44:47.286Z,9.26
2023-03-18T18:49:52.070Z,9.45
2023-03-18T18:54:58.058Z,8.91
2023-03-18T19:00:02.384Z,8.77
2023-03-18T19:05:08.218Z,8.56
2023-03-18T19:10:15.988Z,8.41
2023-03-18T19:15:21.707Z,8.87
2023-03-18T19:20:30.022Z,9.15
2023-03-18T19:25:35.809Z,8.87
2023-03-18T19:30:40.058Z,9.17
2023-03-18T19:35:45.118Z,8.77
2023-03-18T19:40:52.924Z,8.18
2023-03-18T19:45:57.235Z,9.17
2023-03-18T19:51:01.513Z,8.80
2023-03-18T19:56:17.641Z,8.61
2023-03-18T20:01:23.054Z,8.58
2023-03-18T20:06:27.697Z,8.80
2023-03-18T20:11:33.493Z,8.70
2023-03-18T20:16:37.697Z,8.45
2023-03-18T20:21:42.323Z,8.72
2023-03-18T20:26:48.103Z,8.86
2023-03-18T20:31:52.283Z,8.73
2023-03-18T20:36:56.504Z,8.94
2023-03-18T20:42:02.046Z,8.91
2023-03-18T20:47:06.497Z,9.22
2023-03-18T20:52:24.412Z,9.71
2023-03-18T20:57:30.292Z,9.45
2023-03-18T21:02:35.137Z,9.21
2023-03-18T21:07:39.889Z,9.14
2023-03-18T21:12:46.014Z,9.17
2023-03-18T21:17:50.543Z,9.10
2023-03-18T21:22:56.246Z,8.59
2023-03-18T21:28:02.230Z,8.69
2023-03-18T21:33:18.835Z,8.60
2023-03-18T21:38:22.987Z,8.65
2023-03-18T21:43:34.085Z,8.56
2023-03-18T21:48:38.354Z,8.34
2023-03-18T21:53:42.526Z,8.93
2023-03-18T21:58:48.309Z,8.99
2023-03-18T22:03:53.969Z,8.89
2023-03-18T22:08:58.873Z,9.14
2023-03-18T22:14:04.923Z,9.01
2023-03-18T22:19:08.954Z,8.99
2023-03-18T22:24:15.718Z,8.90
2023-03-18T22:29:24.257Z,9.23
2023-03-18T22:34:28.423Z,8.75
2023-03-18T22:39:32.394Z,7.96
2023-03-18T22:44:38.235Z,6.93
2023-03-18T22:49:42.384Z,7.37
2023-03-18T22:54:46.739Z,7.43
2023-03-18T22:59:52.591Z,6.78
2023-03-18T23:04:57.620Z,6.32
2023-03-18T23:10:04.794Z,6.11
2023-03-18T23:15:17.237Z,6.09
2023-03-18T23:20:21.541Z,6.32
2023-03-18T23:25:26.002Z,6.27
2023-03-18T23:30:32.258Z,6.09
2023-03-18T23:35:37.659Z,6.09
2023-03-18T23:40:41.991Z,6.08
2023-03-18T23:45:47.556Z,6.40
2023-03-18T23:50:51.641Z,6.14
2023-03-18T23:55:56.008Z,6.85
